Time;durP1;ratioP1;P1;durP2;ratioP2;P2;SDS_P1;SDS_P2;PMS_P1;PMS_P2;Temp;Humidity;BMP_temperature;BMP_pressure;BME280_temperature;BME280_humidity;BME280_pressure;Samples;Min_cycle;Max_cycle;Signal;HPM_P1;HPM_P2
2023/05/25 00:01:18;;;;;;;;;;;;;;;;;;5061680;28;19928;-58
2023/05/25 00:03:45;;;;;;;;;;;;;;;;;;5075751;28;20373;-59
2023/05/25 00:06:11;;;;;;;;;;;;;;;;;;5075205;28;19920;-58
2023/05/25 00:08:39;;;;;;;;;;;;;;;;;;5075750;28;20029;-58
2023/05/25 00:11:05;;;;;;;;;;;;;;;;;;5071468;28;19928;-58
2023/05/25 00:13:32;;;;;;;;;;;;;;;;;;5072658;28;19927;-59
2023/05/25 00:15:58;;;;;;;;;;;;;;;;;;5061304;28;19928;-59
2023/05/25 00:18:25;;;;;;;;;;;;;;;;;;5058594;28;19927;-58
2023/05/25 00:20:53;;;;;;;;;;;;;;;;;;5075629;28;19920;-58
2023/05/25 00:23:19;;;;;;;;;;;;;;;;;;5075221;28;19931;-58
2023/05/25 00:25:49;;;;;;;;;;;;;;;;;;5058486;28;19921;-59
2023/05/25 00:28:15;;;;;;;;;;;;;;;;;;5070595;28;20369;-59
2023/05/25 00:30:42;;;;;;;;;;;;;;;;;;5072523;28;20365;-59
2023/05/25 00:33:11;;;;;;;;;;;;;;;;;;5074889;28;19927;-58
2023/05/25 00:35:37;;;;;;;;;;;;;;;;;;5057043;28;19921;-59
2023/05/25 00:38:04;;;;;;;;;;;;;;;;;;5054975;28;19920;-58
2023/05/25 00:40:30;;;;;;;;;;;;;;;;;;5062448;28;19928;-59
2023/05/25 00:42:57;;;;;;;;;;;;;;;;;;5074188;28;19927;-58
2023/05/25 00:45:23;;;;;;;;;;;;;;;;;;5059785;28;19924;-59
2023/05/25 00:47:50;;;;;;;;;;;;;;;;;;5071829;28;19927;-58
2023/05/25 00:50:18;;;;;;;;;;;;;;;;;;5071175;28;19920;-58
2023/05/25 00:52:45;;;;;;;;;;;;;;;;;;5074455;28;19921;-58
2023/05/25 00:55:12;;;;;;;;;;;;;;;;;;5073652;28;19920;-58
2023/05/25 00:57:38;;;;;;;;;;;;;;;;;;5074416;28;19921;-59
2023/05/25 01:00:10;;;;;;;;;;;;;;;;;;5071183;28;19927;-58
2023/05/25 01:02:36;;;;;;;;;;;;;;;;;;5074298;28;20301;-58
2023/05/25 01:05:03;;;;;;;;;;;;;;;;;;5072997;28;19924;-59
2023/05/25 01:07:29;;;;;;;;;;;;;;;;;;5074269;28;19928;-58
2023/05/25 01:09:56;;;;;;;;;;;;;;;;;;5074336;28;19928;-58
2023/05/25 01:12:22;;;;;;;;;;;;;;;;;;5074004;28;19920;-58
2023/05/25 01:14:49;;;;;;;;;;;;;;;;;;5068716;28;19920;-58
2023/05/25 01:17:16;;;;;;;;;;;;;;;;;;5073845;28;19928;-59
2023/05/25 01:19:44;;;;;;;;;;;;;;;;;;5074103;28;19921;-58
2023/05/25 01:22:11;;;;;;;;;;;;;;;;;;5073350;28;19927;-58
2023/05/25 01:24:39;;;;;;;;;;;;;;;;;;5071479;28;19920;-58
2023/05/25 01:27:06;;;;;;;;;;;;;;;;;;5065282;28;20285;-58
2023/05/25 01:29:32;;;;;;;;;;;;;;;;;;5053289;28;19921;-58
2023/05/25 01:31:59;;;;;;;;;;;;;;;;;;5072351;28;20297;-58
2023/05/25 01:34:25;;;;;;;;;;;;;;;;;;5073851;28;19927;-58
2023/05/25 01:36:52;;;;;;;;;;;;;;;;;;5071136;28;20293;-58
2023/05/25 01:39:18;;;;;;;;;;;;;;;;;;5073885;28;19920;-58
2023/05/25 01:41:45;;;;;;;;;;;;;;;;;;5073879;28;19920;-58
2023/05/25 01:44:11;;;;;;;;;;;;;;;;;;5073568;28;19927;-58
2023/05/25 01:46:38;;;;;;;;;;;;;;;;;;5057724;28;19921;-58
2023/05/25 01:49:05;;;;;;;;;;;;;;;;;;5053775;28;19920;-58
2023/05/25 01:51:32;;;;;;;;;;;;;;;;;;5053506;28;19928;-58
2023/05/25 01:53:58;;;;;;;;;;;;;;;;;;5067954;28;19920;-58
2023/05/25 01:56:25;;;;;;;;;;;;;;;;;;5073412;28;20373;-58
2023/05/25 01:58:52;;;;;;;;;;;;;;;;;;5073386;28;19920;-58
2023/05/25 02:01:18;;;;;;;;;;;;;;;;;;5058710;28;19928;-58
2023/05/25 02:03:45;;;;;;;;;;;;;;;;;;5053073;28;19928;-58
2023/05/25 02:06:11;;;;;;;;;;;;;;;;;;5053726;28;20365;-58
2023/05/25 02:08:38;;;;;;;;;;;;;;;;;;5053503;28;19920;-58
2023/05/25 02:11:04;;;;;;;;;;;;;;;;;;5053466;28;19925;-58
2023/05/25 02:13:31;;;;;;;;;;;;;;;;;;5055623;28;19921;-58
2023/05/25 02:15:57;;;;;;;;;;;;;;;;;;5052975;28;19928;-58
2023/05/25 02:18:24;;;;;;;;;;;;;;;;;;5053444;28;19940;-58
2023/05/25 02:20:50;;;;;;;;;;;;;;;;;;5053389;28;19944;-58
2023/05/25 02:23:17;;;;;;;;;;;;;;;;;;5053357;28;20405;-58
2023/05/25 02:25:44;;;;;;;;;;;;;;;;;;5053501;28;20285;-58
2023/05/25 02:28:10;;;;;;;;;;;;;;;;;;5053330;28;19928;-58
2023/05/25 02:30:37;;;;;;;;;;;;;;;;;;5066905;28;21333;-58
2023/05/25 02:33:03;;;;;;;;;;;;;;;;;;5053218;28;20362;-58
2023/05/25 02:35:30;;;;;;;;;;;;;;;;;;5053364;28;19920;-59
2023/05/25 02:37:56;;;;;;;;;;;;;;;;;;5053259;28;19928;-58
2023/05/25 02:40:23;;;;;;;;;;;;;;;;;;5053254;28;19920;-58
2023/05/25 02:42:49;;;;;;;;;;;;;;;;;;5053227;28;20370;-58
2023/05/25 02:45:18;;;;;;;;;;;;;;;;;;5052566;28;19921;-58
2023/05/25 02:47:45;;;;;;;;;;;;;;;;;;5052821;28;20385;-59
2023/05/25 02:50:16;;;;;;;;;;;;;;;;;;5053351;28;19950;-59
2023/05/25 02:52:43;;;;;;;;;;;;;;;;;;5053179;28;20385;-59
2023/05/25 02:55:12;;;;;;;;;;;;;;;;;;5057473;28;19920;-58
2023/05/25 02:57:38;;;;;;;;;;;;;;;;;;5073070;28;19920;-59
2023/05/25 03:00:05;;;;;;;;;;;;;;;;;;5069188;28;20382;-58
2023/05/25 03:02:32;;;;;;;;;;;;;;;;;;5053003;28;20369;-58
2023/05/25 03:04:59;;;;;;;;;;;;;;;;;;5052976;28;19927;-60
2023/05/25 03:07:28;;;;;;;;;;;;;;;;;;5052914;28;19921;-59
2023/05/25 03:09:55;;;;;;;;;;;;;;;;;;5052624;28;19932;-59
2023/05/25 03:12:21;;;;;;;;;;;;;;;;;;5052840;28;20365;-59
2023/05/25 03:14:48;;;;;;;;;;;;;;;;;;5053392;28;19929;-58
2023/05/25 03:17:15;;;;;;;;;;;;;;;;;;5056326;28;19931;-58
2023/05/25 03:19:42;;;;;;;;;;;;;;;;;;5056631;28;19921;-58
2023/05/25 03:22:09;;;;;;;;;;;;;;;;;;5056532;28;19928;-59
2023/05/25 03:24:40;;;;;;;;;;;;;;;;;;5056559;28;19927;-59
2023/05/25 03:27:06;;;;;;;;;;;;;;;;;;5065686;28;20277;-59
2023/05/25 03:29:33;;;;;;;;;;;;;;;;;;5075502;28;19928;-58
2023/05/25 03:31:59;;;;;;;;;;;;;;;;;;5075398;28;20265;-59
2023/05/25 03:34:26;;;;;;;;;;;;;;;;;;5075910;28;19920;-59
2023/05/25 03:36:53;;;;;;;;;;;;;;;;;;5076299;28;20391;-59
2023/05/25 03:39:21;;;;;;;;;;;;;;;;;;5075879;28;19925;-58
2023/05/25 03:41:47;;;;;;;;;;;;;;;;;;5076043;28;19927;-59
2023/05/25 03:44:14;;;;;;;;;;;;;;;;;;5074214;28;19920;-59
2023/05/25 03:46:40;;;;;;;;;;;;;;;;;;5073250;28;19927;-59
2023/05/25 03:49:12;;;;;;;;;;;;;;;;;;5075978;28;19943;-58
2023/05/25 03:51:38;;;;;;;;;;;;;;;;;;5076000;28;20328;-59
2023/05/25 03:54:05;;;;;;;;;;;;;;;;;;5075532;28;19928;-59
2023/05/25 03:56:31;;;;;;;;;;;;;;;;;;5075942;28;19928;-59
2023/05/25 03:58:59;;;;;;;;;;;;;;;;;;5076018;28;19920;-59
2023/05/25 04:01:28;;;;;;;;;;;;;;;;;;5059710;28;19928;-59
2023/05/25 04:03:55;;;;;;;;;;;;;;;;;;5055425;28;19925;-59
2023/05/25 04:06:24;;;;;;;;;;;;;;;;;;5055854;28;19928;-59
2023/05/25 04:08:50;;;;;;;;;;;;;;;;;;5055672;28;19928;-59
2023/05/25 04:11:17;;;;;;;;;;;;;;;;;;5055761;28;19928;-59
2023/05/25 04:13:43;;;;;;;;;;;;;;;;;;5055006;28;19920;-59
2023/05/25 04:16:11;;;;;;;;;;;;;;;;;;5054353;28;20400;-59
2023/05/25 04:18:39;;;;;;;;;;;;;;;;;;5055545;28;19927;-58
2023/05/25 04:21:05;;;;;;;;;;;;;;;;;;5055562;28;19928;-59
2023/05/25 04:23:33;;;;;;;;;;;;;;;;;;5055491;28;20293;-59
2023/05/25 04:26:00;;;;;;;;;;;;;;;;;;5072973;28;19927;-58
2023/05/25 04:28:27;;;;;;;;;;;;;;;;;;5075166;28;19920;-59
2023/05/25 04:30:55;;;;;;;;;;;;;;;;;;5065630;28;19920;-60
2023/05/25 04:33:22;;;;;;;;;;;;;;;;;;5057094;28;20370;-58
2023/05/25 04:35:49;;;;;;;;;;;;;;;;;;5055997;28;19927;-59
2023/05/25 04:38:16;;;;;;;;;;;;;;;;;;5054853;28;19928;-59
2023/05/25 04:40:42;;;;;;;;;;;;;;;;;;5055190;28;19927;-59
2023/05/25 04:43:11;;;;;;;;;;;;;;;;;;5054989;28;19921;-59
2023/05/25 04:45:38;;;;;;;;;;;;;;;;;;5058038;28;19920;-59
2023/05/25 04:48:06;;;;;;;;;;;;;;;;;;5074896;28;20377;-59
2023/05/25 04:50:32;;;;;;;;;;;;;;;;;;5074805;28;19928;-59
2023/05/25 04:52:59;;;;;;;;;;;;;;;;;;5074417;28;19927;-59
2023/05/25 04:55:25;;;;;;;;;;;;;;;;;;5073602;28;19924;-59
2023/05/25 04:57:52;;;;;;;;;;;;;;;;;;5074706;28;19920;-59
2023/05/25 05:00:19;;;;;;;;;;;;;;;;;;5071620;28;19920;-58
2023/05/25 05:02:45;;;;;;;;;;;;;;;;;;5070493;28;19921;-59
2023/05/25 05:05:12;;;;;;;;;;;;;;;;;;5074203;28;20386;-59
2023/05/25 05:07:38;;;;;;;;;;;;;;;;;;5060119;28;19928;-58
2023/05/25 05:10:05;;;;;;;;;;;;;;;;;;5060214;28;19929;-59
2023/05/25 05:12:31;;;;;;;;;;;;;;;;;;5061099;28;19920;-59
2023/05/25 05:14:58;;;;;;;;;;;;;;;;;;5072929;28;19920;-58
2023/05/25 05:17:25;;;;;;;;;;;;;;;;;;5069995;28;20366;-59
2023/05/25 05:19:51;;;;;;;;;;;;;;;;;;5073077;28;20373;-59
2023/05/25 05:22:18;;;;;;;;;;;;;;;;;;5074107;28;19927;-59
2023/05/25 05:24:44;;;;;;;;;;;;;;;;;;5067604;28;19920;-59
2023/05/25 05:27:12;;;;;;;;;;;;;;;;;;5062134;28;19928;-59
2023/05/25 05:29:39;;;;;;;;;;;;;;;;;;5058419;28;19920;-58
2023/05/25 05:32:06;;;;;;;;;;;;;;;;;;5061508;28;20381;-59
2023/05/25 05:34:32;;;;;;;;;;;;;;;;;;5065997;28;19920;-58
2023/05/25 05:36:59;;;;;;;;;;;;;;;;;;5063440;28;19920;-59
2023/05/25 05:39:26;;;;;;;;;;;;;;;;;;5064967;28;19920;-58
2023/05/25 05:41:52;;;;;;;;;;;;;;;;;;5061211;28;19943;-59
2023/05/25 05:44:18;;;;;;;;;;;;;;;;;;5071867;28;19921;-59
2023/05/25 05:46:45;;;;;;;;;;;;;;;;;;5071288;28;20400;-59
2023/05/25 05:49:11;;;;;;;;;;;;;;;;;;5073311;28;19920;-59
2023/05/25 05:51:38;;;;;;;;;;;;;;;;;;5072520;28;19921;-59
2023/05/25 05:54:05;;;;;;;;;;;;;;;;;;5073376;28;19930;-57
2023/05/25 05:56:32;;;;;;;;;;;;;;;;;;5062677;28;20297;-59
2023/05/25 05:58:58;;;;;;;;;;;;;;;;;;5053185;28;19921;-59
2023/05/25 06:01:25;;;;;;;;;;;;;;;;;;5054171;28;19947;-59
2023/05/25 06:03:53;;;;;;;;;;;;;;;;;;5052739;28;19921;-59
2023/05/25 06:06:19;;;;;;;;;;;;;;;;;;5070846;28;19932;-59
2023/05/25 06:08:46;;;;;;;;;;;;;;;;;;5072630;28;20361;-59
2023/05/25 06:11:12;;;;;;;;;;;;;;;;;;5073300;28;19928;-58
2023/05/25 06:13:39;;;;;;;;;;;;;;;;;;5059239;28;19920;-58
2023/05/25 06:16:05;;;;;;;;;;;;;;;;;;5062387;28;19920;-59
2023/05/25 06:18:32;;;;;;;;;;;;;;;;;;5067188;28;19928;-59
2023/05/25 06:20:58;;;;;;;;;;;;;;;;;;5073185;28;19927;-60
2023/05/25 06:23:25;;;;;;;;;;;;;;;;;;5072161;28;19939;-59
2023/05/25 06:25:52;;;;;;;;;;;;;;;;;;5053200;28;19927;-59
2023/05/25 06:28:18;;;;;;;;;;;;;;;;;;5052690;28;20305;-59
2023/05/25 06:30:45;;;;;;;;;;;;;;;;;;5059585;28;19954;-59
2023/05/25 06:33:11;;;;;;;;;;;;;;;;;;5053161;28;20397;-60
2023/05/25 06:35:38;;;;;;;;;;;;;;;;;;5056178;28;19921;-59
2023/05/25 06:38:05;;;;;;;;;;;;;;;;;;5056007;28;19920;-59
2023/05/25 06:40:31;;;;;;;;;;;;;;;;;;5051038;28;20285;-59
2023/05/25 06:42:58;;;;;;;;;;;;;;;;;;5052687;28;19927;-59
2023/05/25 06:45:24;;;;;;;;;;;;;;;;;;5052228;28;19920;-59
2023/05/25 06:47:51;;;;;;;;;;;;;;;;;;5066694;28;19920;-59
2023/05/25 06:50:17;;;;;;;;;;;;;;;;;;5076848;28;20277;-61
2023/05/25 06:52:45;;;;;;;;;;;;;;;;;;5077001;28;19920;-61
2023/05/25 06:55:12;;;;;;;;;;;;;;;;;;5073387;28;19920;-59
2023/05/25 06:57:38;;;;;;;;;;;;;;;;;;5075877;28;19920;-59
2023/05/25 07:00:10;;;;;;;;;;;;;;;;;;5076945;28;19920;-60
2023/05/25 07:02:36;;;;;;;;;;;;;;;;;;5072593;28;20289;-60
2023/05/25 07:05:04;;;;;;;;;;;;;;;;;;5076557;28;19920;-60
2023/05/25 07:07:31;;;;;;;;;;;;;;;;;;5076414;28;19928;-59
2023/05/25 07:09:57;;;;;;;;;;;;;;;;;;5076243;28;19927;-59
2023/05/25 07:12:24;;;;;;;;;;;;;;;;;;5074475;28;19921;-60
2023/05/25 07:14:50;;;;;;;;;;;;;;;;;;5075745;28;20296;-59
2023/05/25 07:17:17;;;;;;;;;;;;;;;;;;5073057;28;19920;-59
2023/05/25 07:19:43;;;;;;;;;;;;;;;;;;5076119;28;19920;-60
2023/05/25 07:22:10;;;;;;;;;;;;;;;;;;5076417;28;19943;-59
2023/05/25 07:24:36;;;;;;;;;;;;;;;;;;5076235;28;19924;-60
2023/05/25 07:27:03;;;;;;;;;;;;;;;;;;5076017;28;19928;-59
2023/05/25 07:29:29;;;;;;;;;;;;;;;;;;5058955;28;19920;-59
2023/05/25 07:31:56;;;;;;;;;;;;;;;;;;5057353;28;19925;-59
2023/05/25 07:34:22;;;;;;;;;;;;;;;;;;5056091;28;19920;-59
2023/05/25 07:36:49;;;;;;;;;;;;;;;;;;5055912;28;19928;-59
2023/05/25 07:39:15;;;;;;;;;;;;;;;;;;5064796;28;20369;-59
2023/05/25 07:41:42;;;;;;;;;;;;;;;;;;5075884;28;19920;-60
2023/05/25 07:44:08;;;;;;;;;;;;;;;;;;5075243;28;19927;-59
2023/05/25 07:46:35;;;;;;;;;;;;;;;;;;5071263;28;19927;-60
2023/05/25 07:49:02;;;;;;;;;;;;;;;;;;5072982;28;19920;-59
2023/05/25 07:51:28;;;;;;;;;;;;;;;;;;5075648;28;19928;-59
2023/05/25 07:53:55;;;;;;;;;;;;;;;;;;5075538;28;19927;-60
2023/05/25 07:56:22;;;;;;;;;;;;;;;;;;5075967;28;20258;-59
2023/05/25 07:58:48;;;;;;;;;;;;;;;;;;5075836;28;19943;-60
2023/05/25 08:01:16;;;;;;;;;;;;;;;;;;5071890;28;19928;-60
2023/05/25 08:03:42;;;;;;;;;;;;;;;;;;5055472;28;20397;-59
2023/05/25 08:06:09;;;;;;;;;;;;;;;;;;5055787;28;19927;-60
2023/05/25 08:08:36;;;;;;;;;;;;;;;;;;5055388;28;19920;-60
2023/05/25 08:11:02;;;;;;;;;;;;;;;;;;5055528;28;19943;-60
2023/05/25 08:13:29;;;;;;;;;;;;;;;;;;5054530;28;19921;-60
2023/05/25 08:15:55;;;;;;;;;;;;;;;;;;5054320;28;20369;-60
2023/05/25 08:18:22;;;;;;;;;;;;;;;;;;5054955;28;19921;-60
2023/05/25 08:20:48;;;;;;;;;;;;;;;;;;5055449;28;20308;-60
2023/05/25 08:23:15;;;;;;;;;;;;;;;;;;5055373;28;19928;-60
2023/05/25 08:25:41;;;;;;;;;;;;;;;;;;5055263;28;19927;-60
2023/05/25 08:28:08;;;;;;;;;;;;;;;;;;5055356;28;19924;-60
2023/05/25 08:30:34;;;;;;;;;;;;;;;;;;5054861;28;20358;-59
2023/05/25 08:33:01;;;;;;;;;;;;;;;;;;5073588;28;19931;-60
2023/05/25 08:35:27;;;;;;;;;;;;;;;;;;5075179;28;20250;-60
2023/05/25 08:37:54;;;;;;;;;;;;;;;;;;5075012;28;19920;-60
2023/05/25 08:40:20;;;;;;;;;;;;;;;;;;5074987;28;20396;-60
2023/05/25 08:42:47;;;;;;;;;;;;;;;;;;5075028;28;19950;-61
2023/05/25 08:45:13;;;;;;;;;;;;;;;;;;5073172;28;19921;-60
2023/05/25 08:47:40;;;;;;;;;;;;;;;;;;5072257;28;19920;-60
2023/05/25 08:50:06;;;;;;;;;;;;;;;;;;5074721;28;20373;-60
2023/05/25 08:52:33;;;;;;;;;;;;;;;;;;5074638;28;19920;-60
2023/05/25 08:54:59;;;;;;;;;;;;;;;;;;5074862;28;19935;-59
2023/05/25 08:57:26;;;;;;;;;;;;;;;;;;5075025;28;19924;-60
2023/05/25 08:59:52;;;;;;;;;;;;;;;;;;5074603;28;19946;-59
2023/05/25 09:02:19;;;;;;;;;;;;;;;;;;5067560;28;19943;-60
2023/05/25 09:04:45;;;;;;;;;;;;;;;;;;5071822;28;19920;-60
2023/05/25 09:07:12;;;;;;;;;;;;;;;;;;5074616;28;20293;-60
2023/05/25 09:09:38;;;;;;;;;;;;;;;;;;5074304;28;19932;-60
2023/05/25 09:12:05;;;;;;;;;;;;;;;;;;5074294;28;19920;-60
2023/05/25 09:14:31;;;;;;;;;;;;;;;;;;5068337;28;19920;-60
2023/05/25 09:16:58;;;;;;;;;;;;;;;;;;5071888;28;19928;-60
2023/05/25 09:19:24;;;;;;;;;;;;;;;;;;5074138;28;19921;-60
2023/05/25 09:21:51;;;;;;;;;;;;;;;;;;5074139;28;20284;-60
2023/05/25 09:24:18;;;;;;;;;;;;;;;;;;5078272;28;19947;-60
2023/05/25 09:26:47;;;;;;;;;;;;;;;;;;5073862;28;20034;-59
2023/05/25 09:29:14;;;;;;;;;;;;;;;;;;5070487;28;20286;-59
2023/05/25 09:31:41;;;;;;;;;;;;;;;;;;5073891;28;19920;-59
2023/05/25 09:34:07;;;;;;;;;;;;;;;;;;5073858;28;19921;-59
2023/05/25 09:36:34;;;;;;;;;;;;;;;;;;5073369;28;19920;-59
2023/05/25 09:39:00;;;;;;;;;;;;;;;;;;5057762;28;19921;-58
2023/05/25 09:41:28;;;;;;;;;;;;;;;;;;5065892;28;19920;-59
2023/05/25 09:43:55;;;;;;;;;;;;;;;;;;5072321;28;19920;-60
2023/05/25 09:46:21;;;;;;;;;;;;;;;;;;5055307;28;20266;-60
2023/05/25 09:48:52;;;;;;;;;;;;;;;;;;5052833;28;20396;-60
2023/05/25 09:51:18;;;;;;;;;;;;;;;;;;5053829;28;19931;-60
2023/05/25 09:53:45;;;;;;;;;;;;;;;;;;5069840;28;20288;-60
2023/05/25 09:56:12;;;;;;;;;;;;;;;;;;5073679;28;19927;-60
2023/05/25 09:58:42;;;;;;;;;;;;;;;;;;5061023;28;20274;-60
2023/05/25 10:01:09;;;;;;;;;;;;;;;;;;5065914;28;19920;-60
2023/05/25 10:03:35;;;;;;;;;;;;;;;;;;5073539;28;19921;-60
2023/05/25 10:06:02;;;;;;;;;;;;;;;;;;5073577;28;19928;-60
2023/05/25 10:08:28;;;;;;;;;;;;;;;;;;5073415;28;19920;-60
2023/05/25 10:10:55;;;;;;;;;;;;;;;;;;5073385;28;19994;-60
2023/05/25 10:13:22;;;;;;;;;;;;;;;;;;5072936;28;19927;-59
2023/05/25 10:15:48;;;;;;;;;;;;;;;;;;5069009;28;19932;-60
2023/05/25 10:18:15;;;;;;;;;;;;;;;;;;5071331;28;19928;-60
2023/05/25 10:20:41;;;;;;;;;;;;;;;;;;5072886;28;19920;-60
2023/05/25 10:23:08;;;;;;;;;;;;;;;;;;5072403;28;20408;-60
2023/05/25 10:25:34;;;;;;;;;;;;;;;;;;5066109;28;20358;-60
2023/05/25 10:28:01;;;;;;;;;;;;;;;;;;5053168;28;19928;-60
2023/05/25 10:30:27;;;;;;;;;;;;;;;;;;5059695;28;20322;-60
2023/05/25 10:32:54;;;;;;;;;;;;;;;;;;5072949;28;19928;-60
2023/05/25 10:35:20;;;;;;;;;;;;;;;;;;5073194;28;19927;-60
2023/05/25 10:37:47;;;;;;;;;;;;;;;;;;5072856;28;19928;-60
2023/05/25 10:40:14;;;;;;;;;;;;;;;;;;5058865;28;19921;-60
2023/05/25 10:42:40;;;;;;;;;;;;;;;;;;5072831;28;19920;-60
2023/05/25 10:45:06;;;;;;;;;;;;;;;;;;5069723;28;19928;-60
2023/05/25 10:47:33;;;;;;;;;;;;;;;;;;5069592;28;19920;-60
2023/05/25 10:50:01;;;;;;;;;;;;;;;;;;5072886;28;19920;-60
2023/05/25 10:52:28;;;;;;;;;;;;;;;;;;5072646;28;20301;-59
2023/05/25 10:54:55;;;;;;;;;;;;;;;;;;5072680;28;19920;-59
2023/05/25 10:57:21;;;;;;;;;;;;;;;;;;5072935;28;19920;-59
2023/05/25 10:59:48;;;;;;;;;;;;;;;;;;5072248;28;20508;-60
2023/05/25 11:02:14;;;;;;;;;;;;;;;;;;5069007;28;19927;-59
2023/05/25 11:04:41;;;;;;;;;;;;;;;;;;5071937;28;20292;-59
2023/05/25 11:07:15;;;;;;;;;;;;;;;;;;5072828;28;19927;-59
2023/05/25 11:09:42;;;;;;;;;;;;;;;;;;5072667;28;19920;-59
2023/05/25 11:12:08;;;;;;;;;;;;;;;;;;5072837;28;19931;-59
2023/05/25 11:14:37;;;;;;;;;;;;;;;;;;5072311;28;19927;-59
2023/05/25 11:17:03;;;;;;;;;;;;;;;;;;5069063;28;19920;-59
2023/05/25 11:19:30;;;;;;;;;;;;;;;;;;5072767;28;19920;-59
2023/05/25 11:21:57;;;;;;;;;;;;;;;;;;5072780;28;20365;-59
2023/05/25 11:24:23;;;;;;;;;;;;;;;;;;5072526;28;19921;-59
2023/05/25 11:26:49;;;;;;;;;;;;;;;;;;5072652;28;19924;-59
2023/05/25 11:29:16;;;;;;;;;;;;;;;;;;5072339;28;20007;-58
2023/05/25 11:31:43;;;;;;;;;;;;;;;;;;5069325;28;20400;-59
2023/05/25 11:34:11;;;;;;;;;;;;;;;;;;5072596;28;19924;-59
2023/05/25 11:36:38;;;;;;;;;;;;;;;;;;5074686;28;19928;-59
2023/05/25 11:39:04;;;;;;;;;;;;;;;;;;5073665;28;20865;-59
2023/05/25 11:41:31;;;;;;;;;;;;;;;;;;5065835;28;19944;-59
2023/05/25 11:43:58;;;;;;;;;;;;;;;;;;5061663;28;19927;-59
2023/05/25 11:46:25;;;;;;;;;;;;;;;;;;5060404;28;19944;-60
2023/05/25 11:48:51;;;;;;;;;;;;;;;;;;5055723;28;19928;-59
2023/05/25 11:51:18;;;;;;;;;;;;;;;;;;5057412;28;19927;-59
2023/05/25 11:53:45;;;;;;;;;;;;;;;;;;5059209;28;19920;-60
2023/05/25 11:56:11;;;;;;;;;;;;;;;;;;5075870;28;19927;-60
2023/05/25 11:58:38;;;;;;;;;;;;;;;;;;5075839;28;19920;-60
2023/05/25 12:01:04;;;;;;;;;;;;;;;;;;5064955;28;19932;-60
2023/05/25 12:03:31;;;;;;;;;;;;;;;;;;5055225;28;19935;-59
2023/05/25 12:05:57;;;;;;;;;;;;;;;;;;5073118;28;20297;-59
2023/05/25 12:08:24;;;;;;;;;;;;;;;;;;5075188;28;19920;-58
2023/05/25 12:10:51;;;;;;;;;;;;;;;;;;5075504;28;19920;-59
2023/05/25 12:13:17;;;;;;;;;;;;;;;;;;5075077;28;20292;-57
2023/05/25 12:15:44;;;;;;;;;;;;;;;;;;5072314;28;19920;-59
2023/05/25 12:18:11;;;;;;;;;;;;;;;;;;5075297;28;19921;-59
2023/05/25 12:20:40;;;;;;;;;;;;;;;;;;5075459;28;19921;-59
2023/05/25 12:23:06;;;;;;;;;;;;;;;;;;5075385;28;19931;-59
2023/05/25 12:25:33;;;;;;;;;;;;;;;;;;5077472;28;19927;-59
2023/05/25 12:27:59;;;;;;;;;;;;;;;;;;5072950;28;20316;-59
2023/05/25 12:30:26;;;;;;;;;;;;;;;;;;5054964;28;19927;-59
2023/05/25 12:32:52;;;;;;;;;;;;;;;;;;5054556;28;19928;-60
2023/05/25 12:35:19;;;;;;;;;;;;;;;;;;5055171;28;19954;-60
2023/05/25 12:37:46;;;;;;;;;;;;;;;;;;5054889;28;19921;-60
2023/05/25 12:40:13;;;;;;;;;;;;;;;;;;5054806;28;19921;-60
2023/05/25 12:42:39;;;;;;;;;;;;;;;;;;5055095;28;19932;-59
2023/05/25 12:45:06;;;;;;;;;;;;;;;;;;5053864;28;19927;-60
2023/05/25 12:47:32;;;;;;;;;;;;;;;;;;5054074;28;20397;-59
2023/05/25 12:49:59;;;;;;;;;;;;;;;;;;5055968;28;19928;-60
2023/05/25 12:52:25;;;;;;;;;;;;;;;;;;5053483;28;19921;-60
2023/05/25 12:54:52;;;;;;;;;;;;;;;;;;5054465;28;19920;-60
2023/05/25 12:57:18;;;;;;;;;;;;;;;;;;5054200;28;19920;-60
2023/05/25 12:59:45;;;;;;;;;;;;;;;;;;5053914;28;20365;-59
2023/05/25 13:02:11;;;;;;;;;;;;;;;;;;5072117;28;19927;-60
2023/05/25 13:04:38;;;;;;;;;;;;;;;;;;5068456;28;20270;-60
2023/05/25 13:07:05;;;;;;;;;;;;;;;;;;5056320;28;19932;-60
2023/05/25 13:09:31;;;;;;;;;;;;;;;;;;5074307;28;19927;-60
2023/05/25 13:11:58;;;;;;;;;;;;;;;;;;5074429;28;20297;-59
2023/05/25 13:14:24;;;;;;;;;;;;;;;;;;5073761;28;19921;-59
2023/05/25 13:16:51;;;;;;;;;;;;;;;;;;5067539;28;20400;-59
2023/05/25 13:19:17;;;;;;;;;;;;;;;;;;5074127;28;19943;-60
2023/05/25 13:21:44;;;;;;;;;;;;;;;;;;5074009;28;19921;-60
2023/05/25 13:24:11;;;;;;;;;;;;;;;;;;5060669;28;19925;-59
2023/05/25 13:26:37;;;;;;;;;;;;;;;;;;5054011;28;19920;-59
2023/05/25 13:29:04;;;;;;;;;;;;;;;;;;5054064;28;19920;-59
2023/05/25 13:31:30;;;;;;;;;;;;;;;;;;5062524;28;19924;-59
2023/05/25 13:33:57;;;;;;;;;;;;;;;;;;5074187;28;19971;-59
2023/05/25 13:36:23;;;;;;;;;;;;;;;;;;5073817;28;19924;-59
2023/05/25 13:38:50;;;;;;;;;;;;;;;;;;5072131;28;20432;-59
2023/05/25 13:41:25;;;;;;;;;;;;;;;;;;5074073;28;19920;-59
2023/05/25 13:43:52;;;;;;;;;;;;;;;;;;5073991;28;19920;-59
2023/05/25 13:46:18;;;;;;;;;;;;;;;;;;5069956;28;19927;-59
2023/05/25 13:48:46;;;;;;;;;;;;;;;;;;5073826;28;19921;-59
2023/05/25 13:51:13;;;;;;;;;;;;;;;;;;5074256;28;19920;-58
2023/05/25 13:53:39;;;;;;;;;;;;;;;;;;5073747;28;19943;-58
2023/05/25 13:56:06;;;;;;;;;;;;;;;;;;5062989;28;19920;-59
2023/05/25 13:58:32;;;;;;;;;;;;;;;;;;5060139;28;19921;-59
2023/05/25 14:00:59;;;;;;;;;;;;;;;;;;5070500;28;20290;-59
2023/05/25 14:03:25;;;;;;;;;;;;;;;;;;5073387;28;19991;-59
2023/05/25 14:05:52;;;;;;;;;;;;;;;;;;5073504;28;20285;-58
2023/05/25 14:08:19;;;;;;;;;;;;;;;;;;5071709;28;19920;-59
2023/05/25 14:10:45;;;;;;;;;;;;;;;;;;5074446;28;20316;-61
2023/05/25 14:13:12;;;;;;;;;;;;;;;;;;5073507;28;19920;-59
2023/05/25 14:15:39;;;;;;;;;;;;;;;;;;5073245;28;19921;-58
2023/05/25 14:18:05;;;;;;;;;;;;;;;;;;5069551;28;19921;-57
2023/05/25 14:20:35;;;;;;;;;;;;;;;;;;5073401;28;19921;-60
2023/05/25 14:23:02;;;;;;;;;;;;;;;;;;5072936;28;19920;-59
2023/05/25 14:25:28;;;;;;;;;;;;;;;;;;5073287;28;20366;-58
2023/05/25 14:27:56;;;;;;;;;;;;;;;;;;5073235;28;19927;-57
2023/05/25 14:30:23;;;;;;;;;;;;;;;;;;5073270;28;20293;-58
2023/05/25 14:32:49;;;;;;;;;;;;;;;;;;5069772;28;19921;-58
2023/05/25 14:35:16;;;;;;;;;;;;;;;;;;5073331;28;20298;-58
2023/05/25 14:37:42;;;;;;;;;;;;;;;;;;5072697;28;19928;-59
2023/05/25 14:40:09;;;;;;;;;;;;;;;;;;5073105;28;20270;-58
2023/05/25 14:42:35;;;;;;;;;;;;;;;;;;5070902;28;19993;-59
2023/05/25 14:45:02;;;;;;;;;;;;;;;;;;5073148;28;20292;-59
2023/05/25 14:47:28;;;;;;;;;;;;;;;;;;5068732;28;19928;-59
2023/05/25 14:49:55;;;;;;;;;;;;;;;;;;5072660;28;19920;-59
2023/05/25 14:52:21;;;;;;;;;;;;;;;;;;5071122;28;19931;-59
2023/05/25 14:54:48;;;;;;;;;;;;;;;;;;5072909;28;20369;-59
2023/05/25 14:57:15;;;;;;;;;;;;;;;;;;5073436;28;19920;-59
2023/05/25 14:59:42;;;;;;;;;;;;;;;;;;5073309;28;19921;-60
2023/05/25 15:02:08;;;;;;;;;;;;;;;;;;5069545;28;19927;-60
2023/05/25 15:04:35;;;;;;;;;;;;;;;;;;5072892;28;20371;-60
2023/05/25 15:07:04;;;;;;;;;;;;;;;;;;5073222;28;19931;-58
2023/05/25 15:09:32;;;;;;;;;;;;;;;;;;5073535;28;19920;-58
2023/05/25 15:11:58;;;;;;;;;;;;;;;;;;5075463;28;20365;-59
2023/05/25 15:14:25;;;;;;;;;;;;;;;;;;5076296;28;19920;-59
2023/05/25 15:16:51;;;;;;;;;;;;;;;;;;5070363;28;19934;-58
2023/05/25 15:19:18;;;;;;;;;;;;;;;;;;5056325;28;20285;-58
2023/05/25 15:21:44;;;;;;;;;;;;;;;;;;5056315;28;19935;-59
2023/05/25 15:24:15;;;;;;;;;;;;;;;;;;5056017;28;19928;-58
2023/05/25 15:26:41;;;;;;;;;;;;;;;;;;5063064;28;19932;-59
2023/05/25 15:29:08;;;;;;;;;;;;;;;;;;5076177;28;20293;-59
2023/05/25 15:31:34;;;;;;;;;;;;;;;;;;5074179;28;19920;-59
2023/05/25 15:34:01;;;;;;;;;;;;;;;;;;5073404;28;19924;-60
2023/05/25 15:36:27;;;;;;;;;;;;;;;;;;5075903;28;19920;-59
2023/05/25 15:38:54;;;;;;;;;;;;;;;;;;5075776;28;19920;-61
2023/05/25 15:41:20;;;;;;;;;;;;;;;;;;5075544;28;19935;-60
2023/05/25 15:43:47;;;;;;;;;;;;;;;;;;5075703;28;19920;-59
2023/05/25 15:46:13;;;;;;;;;;;;;;;;;;5058041;28;20313;-59
2023/05/25 15:48:40;;;;;;;;;;;;;;;;;;5068733;28;19920;-58
2023/05/25 15:51:06;;;;;;;;;;;;;;;;;;5075157;28;19920;-58
2023/05/25 15:53:33;;;;;;;;;;;;;;;;;;5073388;28;20366;-58
2023/05/25 15:55:59;;;;;;;;;;;;;;;;;;5075596;28;19920;-58
2023/05/25 15:58:26;;;;;;;;;;;;;;;;;;5072641;28;19920;-57
2023/05/25 16:00:53;;;;;;;;;;;;;;;;;;5083625;28;19921;-58
2023/05/25 16:03:19;;;;;;;;;;;;;;;;;;5072433;28;19920;-59
2023/05/25 16:05:46;;;;;;;;;;;;;;;;;;5059773;28;19920;-59
2023/05/25 16:08:13;;;;;;;;;;;;;;;;;;5055697;28;19925;-58
2023/05/25 16:10:39;;;;;;;;;;;;;;;;;;5061156;28;20373;-58
2023/05/25 16:13:06;;;;;;;;;;;;;;;;;;5075409;28;19920;-58
2023/05/25 16:15:32;;;;;;;;;;;;;;;;;;5074720;28;19924;-58
2023/05/25 16:18:00;;;;;;;;;;;;;;;;;;5071288;28;19921;-58
2023/05/25 16:20:26;;;;;;;;;;;;;;;;;;5062043;28;19927;-58
2023/05/25 16:22:52;;;;;;;;;;;;;;;;;;5062212;28;19921;-59
2023/05/25 16:25:19;;;;;;;;;;;;;;;;;;5067682;28;19920;-61
2023/05/25 16:27:46;;;;;;;;;;;;;;;;;;5075253;28;19920;-61
2023/05/25 16:30:13;;;;;;;;;;;;;;;;;;5072566;28;19940;-61
2023/05/25 16:32:39;;;;;;;;;;;;;;;;;;5060680;28;19928;-57
2023/05/25 16:35:06;;;;;;;;;;;;;;;;;;5062202;28;20300;-58
2023/05/25 16:37:32;;;;;;;;;;;;;;;;;;5063226;28;19990;-57
2023/05/25 16:39:59;;;;;;;;;;;;;;;;;;5070205;28;19927;-58
2023/05/25 16:42:25;;;;;;;;;;;;;;;;;;5073085;28;20379;-58